createdAt,value
2022-10-26T00:01:15.961Z,19.83
2022-10-26T00:03:45.658Z,16.77
2022-10-26T00:06:19.320Z,18.33
2022-10-26T00:08:47.245Z,16.25
2022-10-26T00:11:15.472Z,17.27
2022-10-26T00:13:42.841Z,26.98
2022-10-26T00:16:13.057Z,18.00
2022-10-26T00:18:40.476Z,17.43
2022-10-26T00:21:09.627Z,16.83
2022-10-26T00:23:36.829Z,21.38
2022-10-26T00:26:04.484Z,18.40
2022-10-26T00:28:31.870Z,17.23
2022-10-26T00:31:13.199Z,17.40
2022-10-26T00:33:40.584Z,15.45
2022-10-26T00:36:09.877Z,19.17
2022-10-26T00:38:37.533Z,15.35
2022-10-26T00:41:05.219Z,17.80
2022-10-26T00:43:32.043Z,15.57
2022-10-26T00:46:00.176Z,17.98
2022-10-26T00:48:32.389Z,21.23
2022-10-26T00:51:04.253Z,19.00
2022-10-26T00:53:33.604Z,19.73
2022-10-26T00:56:01.727Z,18.47
2022-10-26T00:58:29.232Z,19.80
2022-10-26T01:00:56.127Z,16.20
2022-10-26T01:03:25.242Z,17.20
2022-10-26T01:05:56.856Z,17.55
2022-10-26T01:08:24.795Z,15.83
2022-10-26T01:10:52.429Z,17.73
2022-10-26T01:13:19.885Z,16.35
2022-10-26T01:16:10.728Z,17.27
2022-10-26T01:19:34.919Z,21.75
2022-10-26T01:22:26.655Z,18.40
2022-10-26T01:25:24.609Z,17.27
2022-10-26T01:27:53.448Z,17.42
2022-10-26T01:30:46.055Z,14.93
2022-10-26T01:33:42.407Z,16.88
2022-10-26T01:36:43.886Z,15.10
2022-10-26T01:39:41.704Z,17.75
2022-10-26T01:42:11.284Z,15.80
2022-10-26T01:44:47.088Z,17.02
2022-10-26T01:47:17.498Z,16.45
2022-10-26T01:49:49.787Z,17.73
2022-10-26T01:52:19.666Z,16.17
2022-10-26T01:54:46.600Z,15.88
2022-10-26T01:57:17.967Z,19.63
2022-10-26T02:00:03.836Z,15.75
2022-10-26T02:03:15.475Z,15.97
2022-10-26T02:06:17.382Z,13.80
2022-10-26T02:09:09.478Z,16.85
2022-10-26T02:11:48.215Z,21.80
2022-10-26T02:14:39.140Z,15.15
2022-10-26T02:17:25.617Z,16.07
2022-10-26T02:20:02.687Z,16.73
2022-10-26T02:22:40.685Z,16.83
2022-10-26T02:25:40.543Z,14.05
2022-10-26T02:28:13.959Z,14.35
2022-10-26T02:30:43.459Z,20.17
2022-10-26T02:33:12.907Z,18.23
2022-10-26T02:35:45.279Z,16.20
2022-10-26T02:38:13.828Z,16.88
2022-10-26T02:40:42.150Z,16.85
2022-10-26T02:43:15.267Z,19.63
2022-10-26T02:45:52.824Z,15.77
2022-10-26T02:48:20.657Z,12.75
2022-10-26T02:51:04.318Z,17.75
2022-10-26T02:53:40.251Z,15.00
2022-10-26T02:56:20.273Z,14.77
2022-10-26T02:59:02.092Z,16.52
2022-10-26T03:01:29.890Z,14.45
2022-10-26T03:04:00.446Z,16.13
2022-10-26T03:06:27.762Z,16.17
2022-10-26T03:08:54.891Z,13.93
2022-10-26T03:11:21.818Z,17.90
2022-10-26T03:13:48.719Z,14.35
2022-10-26T03:16:15.614Z,20.15
2022-10-26T03:18:42.607Z,18.70
2022-10-26T03:21:09.495Z,21.20
2022-10-26T03:23:36.379Z,14.27
2022-10-26T03:26:03.278Z,16.67
2022-10-26T03:28:30.153Z,14.38
2022-10-26T03:30:57.067Z,13.02
2022-10-26T03:33:27.014Z,17.40
2022-10-26T03:35:56.700Z,17.92
2022-10-26T03:38:24.282Z,16.00
2022-10-26T03:40:51.324Z,16.08
2022-10-26T03:43:18.388Z,14.52
2022-10-26T03:45:46.087Z,15.33
2022-10-26T03:48:13.386Z,15.25
2022-10-26T03:50:40.423Z,17.23
2022-10-26T03:53:07.743Z,17.65
2022-10-26T03:55:34.639Z,22.98
2022-10-26T03:58:01.711Z,14.47
2022-10-26T04:00:28.771Z,15.77
2022-10-26T04:02:59.212Z,16.63
2022-10-26T04:05:28.811Z,14.10
2022-10-26T04:08:00.582Z,14.25
2022-10-26T04:10:28.551Z,21.30
2022-10-26T04:12:57.199Z,17.65
2022-10-26T04:15:24.277Z,16.52
2022-10-26T04:17:59.493Z,16.08
2022-10-26T04:20:28.375Z,14.82
2022-10-26T04:23:20.394Z,17.17
2022-10-26T04:25:47.488Z,16.60
2022-10-26T04:28:15.092Z,16.90
2022-10-26T04:30:42.287Z,14.18
2022-10-26T04:33:09.213Z,13.70
2022-10-26T04:35:36.200Z,18.50
2022-10-26T04:38:06.337Z,15.27
2022-10-26T04:40:35.124Z,18.85
2022-10-26T04:43:02.283Z,16.20
2022-10-26T04:45:30.868Z,15.38
2022-10-26T04:48:04.639Z,17.57
2022-10-26T04:50:31.998Z,14.82
2022-10-26T04:52:58.996Z,17.73
2022-10-26T04:55:26.248Z,18.88
2022-10-26T04:57:55.950Z,13.52
2022-10-26T05:00:26.638Z,14.67
2022-10-26T05:03:02.733Z,18.63
2022-10-26T05:05:32.552Z,18.30
2022-10-26T05:07:59.583Z,14.25
2022-10-26T05:10:27.635Z,24.00
2022-10-26T05:12:56.236Z,17.23
2022-10-26T05:15:23.577Z,15.70
2022-10-26T05:18:05.570Z,17.30
2022-10-26T05:20:35.171Z,20.88
2022-10-26T05:23:07.305Z,18.33
2022-10-26T05:25:38.486Z,19.77
2022-10-26T05:28:09.617Z,12.95
2022-10-26T05:30:36.788Z,16.90
2022-10-26T05:33:03.880Z,14.73
2022-10-26T05:35:32.076Z,16.48
2022-10-26T05:37:59.817Z,16.63
2022-10-26T05:40:26.911Z,16.55
2022-10-26T05:42:54.325Z,12.80
2022-10-26T05:45:21.283Z,15.52
2022-10-26T05:47:48.396Z,15.88
2022-10-26T05:50:15.656Z,18.53
2022-10-26T05:52:45.169Z,18.65
2022-10-26T05:55:15.827Z,16.67
2022-10-26T05:57:43.884Z,14.80
2022-10-26T06:00:20.839Z,16.85
2022-10-26T06:03:28.322Z,17.63
2022-10-26T06:05:58.897Z,20.10
2022-10-26T06:08:29.380Z,18.02
2022-10-26T06:11:01.271Z,17.80
2022-10-26T06:13:28.516Z,15.98
2022-10-26T06:16:38.480Z,18.53
2022-10-26T06:19:19.590Z,19.27
2022-10-26T06:22:24.374Z,17.35
2022-10-26T06:25:29.491Z,16.67
2022-10-26T06:28:34.633Z,15.27
2022-10-26T06:31:01.597Z,16.07
2022-10-26T06:33:30.668Z,21.45
2022-10-26T06:36:19.459Z,15.52
2022-10-26T06:38:50.261Z,19.88
2022-10-26T06:41:19.258Z,14.52
2022-10-26T06:43:46.712Z,17.33
2022-10-26T06:46:49.436Z,18.70
2022-10-26T06:49:31.322Z,16.02
2022-10-26T06:52:07.119Z,15.80
2022-10-26T06:54:54.378Z,16.08
2022-10-26T06:57:24.625Z,17.77
2022-10-26T06:59:55.873Z,14.48
2022-10-26T07:02:23.297Z,17.13
2022-10-26T07:04:50.308Z,14.95
2022-10-26T07:07:26.037Z,16.45
2022-10-26T07:09:53.335Z,15.87
2022-10-26T07:12:20.315Z,15.82
2022-10-26T07:14:47.950Z,15.35
2022-10-26T07:17:15.204Z,14.73
2022-10-26T07:19:44.536Z,13.63
2022-10-26T07:22:11.552Z,16.90
2022-10-26T07:24:38.579Z,17.90
2022-10-26T07:27:05.744Z,16.05
2022-10-26T07:29:33.767Z,20.13
2022-10-26T07:32:00.764Z,16.67
2022-10-26T07:34:27.664Z,23.03
2022-10-26T07:36:54.533Z,16.63
2022-10-26T07:39:21.405Z,18.05
2022-10-26T07:41:48.276Z,16.73
2022-10-26T07:44:15.181Z,14.43
2022-10-26T07:46:42.134Z,16.37
2022-10-26T07:49:09.110Z,15.65
2022-10-26T07:51:36.023Z,13.63
2022-10-26T07:54:03.297Z,15.48
2022-10-26T07:56:30.364Z,14.48
2022-10-26T07:58:58.063Z,14.63
2022-10-26T08:01:25.641Z,16.45
2022-10-26T08:03:56.501Z,15.30
2022-10-26T08:06:24.086Z,13.55
2022-10-26T08:08:51.882Z,15.55
2022-10-26T08:11:19.059Z,15.57
2022-10-26T08:13:46.013Z,13.45
2022-10-26T08:16:13.478Z,15.13
2022-10-26T08:18:40.373Z,15.10
2022-10-26T08:21:21.760Z,14.02
2022-10-26T08:23:52.902Z,12.03
2022-10-26T08:26:21.123Z,10.07
2022-10-26T08:28:50.145Z,11.60
2022-10-26T08:31:17.091Z,10.50
2022-10-26T08:33:45.009Z,14.68
2022-10-26T08:36:13.673Z,11.13
2022-10-26T08:38:40.569Z,10.25
2022-10-26T08:41:09.351Z,12.45
2022-10-26T08:43:47.876Z,18.67
2022-10-26T08:46:27.904Z,13.18
2022-10-26T08:49:19.121Z,12.23
2022-10-26T08:51:48.522Z,10.02
2022-10-26T08:54:49.492Z,10.63
2022-10-26T08:57:25.028Z,8.93
2022-10-26T09:00:01.609Z,14.05
2022-10-26T09:02:28.980Z,9.03
2022-10-26T09:04:59.331Z,9.98
2022-10-26T09:07:55.756Z,13.43
2022-10-26T09:11:02.051Z,12.88
2022-10-26T09:14:14.040Z,11.43
2022-10-26T09:17:08.895Z,11.53
2022-10-26T09:20:04.965Z,13.93
2022-10-26T09:22:41.123Z,13.25
2022-10-26T09:25:22.327Z,11.98
2022-10-26T09:28:01.872Z,11.82
2022-10-26T09:30:30.257Z,11.17
2022-10-26T09:33:08.823Z,11.98
2022-10-26T09:35:56.804Z,12.93
2022-10-26T09:38:38.669Z,10.65
2022-10-26T09:41:32.118Z,13.98
2022-10-26T09:44:24.262Z,9.10
2022-10-26T09:47:31.942Z,11.40
2022-10-26T09:50:29.320Z,11.98
2022-10-26T09:52:56.221Z,10.75
2022-10-26T09:55:23.394Z,12.52
2022-10-26T09:57:57.395Z,11.20
2022-10-26T10:00:27.003Z,10.10
2022-10-26T10:02:56.771Z,12.18
2022-10-26T10:05:50.795Z,9.30
2022-10-26T10:08:27.594Z,12.15
2022-10-26T10:11:08.673Z,8.33
2022-10-26T10:13:46.559Z,9.63
2022-10-26T10:16:22.567Z,9.57
2022-10-26T10:18:59.029Z,9.15
2022-10-26T10:21:50.097Z,8.88
2022-10-26T10:24:34.266Z,10.13
2022-10-26T10:27:13.146Z,9.50
2022-10-26T10:29:47.417Z,12.35
2022-10-26T10:32:21.657Z,10.52
2022-10-26T10:34:56.741Z,8.82
2022-10-26T10:37:33.352Z,10.00
2022-10-26T10:40:05.145Z,9.50
2022-10-26T10:42:35.998Z,12.32
2022-10-26T10:45:04.342Z,10.48
2022-10-26T10:47:34.591Z,9.05
2022-10-26T10:50:20.813Z,10.37
2022-10-26T10:52:48.150Z,10.18
2022-10-26T10:55:16.467Z,11.18
2022-10-26T10:58:11.028Z,11.43
2022-10-26T11:00:38.632Z,11.13
2022-10-26T11:03:36.487Z,12.93
2022-10-26T11:06:11.036Z,8.73
2022-10-26T11:08:45.145Z,10.23
2022-10-26T11:11:53.289Z,11.90
2022-10-26T11:14:39.264Z,11.82
2022-10-26T11:17:13.676Z,9.53
2022-10-26T11:19:49.960Z,7.68
2022-10-26T11:22:25.788Z,8.98
2022-10-26T11:25:02.369Z,10.20
2022-10-26T11:27:47.703Z,11.55
2022-10-26T11:30:25.539Z,11.83
2022-10-26T11:33:03.004Z,8.30
2022-10-26T11:35:59.051Z,12.90
2022-10-26T11:38:56.766Z,9.55
2022-10-26T11:41:49.629Z,13.10
2022-10-26T11:44:36.812Z,8.50
2022-10-26T11:47:14.293Z,8.68
2022-10-26T11:49:54.384Z,6.90
2022-10-26T11:52:45.661Z,9.88
2022-10-26T11:55:12.755Z,7.20
2022-10-26T11:57:41.976Z,12.40
2022-10-26T12:00:17.333Z,8.60
2022-10-26T12:03:08.632Z,10.00
2022-10-26T12:06:00.663Z,9.68
2022-10-26T12:08:40.887Z,9.52
2022-10-26T12:11:38.958Z,10.27
2022-10-26T12:14:24.544Z,8.30
2022-10-26T12:17:35.913Z,10.93
2022-10-26T12:20:45.728Z,10.88
2022-10-26T12:23:19.088Z,7.05
2022-10-26T12:26:38.020Z,8.73
2022-10-26T12:29:04.835Z,9.00
2022-10-26T12:31:37.231Z,15.15
2022-10-26T12:34:04.955Z,14.07
2022-10-26T12:36:55.992Z,8.00
2022-10-26T12:39:39.050Z,10.07
2022-10-26T12:42:05.868Z,9.32
2022-10-26T12:44:48.225Z,9.60
2022-10-26T12:47:30.621Z,6.82
2022-10-26T12:50:06.260Z,9.13
2022-10-26T12:52:44.819Z,10.53
2022-10-26T12:55:46.071Z,8.77
2022-10-26T12:58:42.078Z,9.90
2022-10-26T13:01:36.363Z,11.32
2022-10-26T13:04:35.667Z,9.00
2022-10-26T13:07:27.386Z,8.90
2022-10-26T13:10:11.192Z,9.32
2022-10-26T13:12:53.093Z,8.85
2022-10-26T13:15:26.523Z,11.38
2022-10-26T13:17:58.744Z,6.90
2022-10-26T13:20:26.261Z,10.70
2022-10-26T13:22:54.180Z,7.30
2022-10-26T13:25:28.173Z,10.18
2022-10-26T13:28:53.503Z,8.40
2022-10-26T13:31:29.575Z,8.85
2022-10-26T13:34:12.482Z,11.87
2022-10-26T13:36:48.791Z,10.48
2022-10-26T13:39:28.022Z,9.95
2022-10-26T13:41:57.971Z,11.68
2022-10-26T13:44:54.772Z,8.23
2022-10-26T13:47:49.331Z,9.63
2022-10-26T13:50:22.715Z,12.77
2022-10-26T13:53:00.880Z,11.60
2022-10-26T13:55:33.872Z,9.38
2022-10-26T13:58:34.990Z,12.18
2022-10-26T14:01:11.699Z,10.47
2022-10-26T14:03:40.092Z,9.82
2022-10-26T14:06:13.312Z,10.77
2022-10-26T14:08:42.694Z,7.68
2022-10-26T14:11:15.556Z,7.82
2022-10-26T14:13:43.022Z,7.20
2022-10-26T14:16:13.054Z,9.48
2022-10-26T14:18:43.412Z,10.55
2022-10-26T14:21:22.360Z,7.32
2022-10-26T14:23:56.047Z,10.23
2022-10-26T14:26:39.523Z,10.03
2022-10-26T14:29:20.667Z,8.50
2022-10-26T14:31:49.868Z,9.88
2022-10-26T14:34:18.646Z,9.40
2022-10-26T14:37:02.113Z,11.57
2022-10-26T14:39:45.157Z,10.93
2022-10-26T14:42:26.897Z,9.55
2022-10-26T14:44:54.087Z,10.52
2022-10-26T14:47:33.250Z,9.82
2022-10-26T14:50:01.654Z,6.60
2022-10-26T14:52:35.925Z,10.93
2022-10-26T14:55:17.125Z,10.30
2022-10-26T14:57:47.451Z,9.20
2022-10-26T15:00:20.436Z,9.15
2022-10-26T15:02:56.090Z,10.00
2022-10-26T15:05:35.686Z,9.87
2022-10-26T15:08:03.281Z,8.75
2022-10-26T15:10:39.175Z,7.05
2022-10-26T15:13:33.150Z,7.80
2022-10-26T15:16:22.596Z,9.35
2022-10-26T15:18:58.051Z,6.97
2022-10-26T15:21:30.728Z,6.47
2022-10-26T15:23:58.116Z,7.50
2022-10-26T15:26:25.912Z,9.55
2022-10-26T15:28:54.005Z,9.20
2022-10-26T15:31:20.834Z,8.40
2022-10-26T15:33:53.444Z,6.97
2022-10-26T15:36:25.916Z,7.63
2022-10-26T15:38:53.451Z,7.43
2022-10-26T15:41:32.943Z,6.32
2022-10-26T15:44:05.844Z,7.33
2022-10-26T15:46:36.233Z,5.35
2022-10-26T15:49:06.393Z,6.75
2022-10-26T15:51:33.859Z,9.30
2022-10-26T15:54:04.484Z,10.25
2022-10-26T15:56:32.147Z,9.97
2022-10-26T15:58:59.595Z,11.40
2022-10-26T16:01:29.147Z,9.65
2022-10-26T16:03:56.431Z,7.35
2022-10-26T16:06:29.853Z,6.90
2022-10-26T16:09:00.404Z,7.83
2022-10-26T16:11:28.435Z,7.15
2022-10-26T16:13:58.208Z,7.40
2022-10-26T16:16:28.123Z,6.43
2022-10-26T16:19:11.931Z,12.15
2022-10-26T16:21:43.814Z,6.97
2022-10-26T16:24:10.838Z,6.78
2022-10-26T16:26:37.806Z,7.50
2022-10-26T16:29:04.693Z,8.15
2022-10-26T16:31:31.600Z,13.38
2022-10-26T16:34:01.712Z,10.03
2022-10-26T16:36:33.959Z,11.50
2022-10-26T16:41:29.149Z,8.27
2022-10-26T16:43:56.612Z,12.50
2022-10-26T16:46:23.976Z,13.90
2022-10-26T16:48:52.083Z,12.68
2022-10-26T16:51:22.522Z,10.80
2022-10-26T16:53:52.932Z,9.50
2022-10-26T16:56:24.709Z,9.48
2022-10-26T16:58:51.696Z,10.07
2022-10-26T17:01:20.540Z,8.20
2022-10-26T17:03:49.603Z,10.18
2022-10-26T17:06:17.484Z,8.95
2022-10-26T17:08:45.176Z,7.07
2022-10-26T17:11:18.714Z,10.63
2022-10-26T17:13:46.374Z,8.48
2022-10-26T17:16:17.344Z,10.13
2022-10-26T17:18:47.039Z,9.15
2022-10-26T17:21:17.000Z,11.25
2022-10-26T17:23:43.975Z,8.63
2022-10-26T17:26:13.718Z,12.55
2022-10-26T17:28:40.796Z,10.27
2022-10-26T17:31:14.908Z,8.38
2022-10-26T17:33:43.955Z,12.57
2022-10-26T17:36:13.794Z,11.03
2022-10-26T17:38:42.892Z,12.10
2022-10-26T17:41:13.611Z,10.60
2022-10-26T17:43:41.989Z,10.88
2022-10-26T17:46:18.035Z,18.40
2022-10-26T17:48:45.153Z,15.67
2022-10-26T17:51:16.036Z,14.20
2022-10-26T17:53:43.486Z,15.68
2022-10-26T17:56:26.449Z,13.88
2022-10-26T17:58:55.850Z,11.23
2022-10-26T18:01:23.552Z,14.93
2022-10-26T18:03:51.403Z,10.70
2022-10-26T18:06:19.275Z,12.65
2022-10-26T18:08:47.096Z,10.75
2022-10-26T18:11:22.533Z,11.95
2022-10-26T18:13:54.321Z,9.97
2022-10-26T18:16:23.232Z,9.80
2022-10-26T18:18:58.709Z,12.05
2022-10-26T18:21:25.989Z,18.08
2022-10-26T18:23:53.752Z,12.90
2022-10-26T18:26:24.475Z,11.33
2022-10-26T18:28:51.431Z,10.60
2022-10-26T18:31:22.613Z,12.70
2022-10-26T18:33:54.124Z,12.88
2022-10-26T18:36:21.056Z,12.65
2022-10-26T18:38:48.468Z,10.57
2022-10-26T18:41:18.295Z,12.90
2022-10-26T18:43:51.548Z,9.70
2022-10-26T18:46:26.997Z,12.55
2022-10-26T18:48:55.474Z,12.80
2022-10-26T18:51:26.012Z,14.43
2022-10-26T18:53:53.031Z,18.40
2022-10-26T18:56:22.904Z,12.60
2022-10-26T18:58:52.479Z,13.50
2022-10-26T19:01:31.676Z,15.93
2022-10-26T19:04:04.936Z,20.47
2022-10-26T19:06:47.500Z,13.38
2022-10-26T19:09:20.242Z,16.80
2022-10-26T19:11:47.977Z,13.18
2022-10-26T19:14:14.863Z,13.32
2022-10-26T19:16:47.300Z,11.50
2022-10-26T19:19:19.541Z,16.25
2022-10-26T19:21:48.801Z,11.82
2022-10-26T19:24:22.154Z,10.93
2022-10-26T19:26:51.108Z,14.23
2022-10-26T19:29:19.905Z,11.60
2022-10-26T19:31:50.336Z,18.65
2022-10-26T19:34:17.709Z,17.48
2022-10-26T19:36:46.580Z,14.70
2022-10-26T19:39:17.839Z,10.48
2022-10-26T19:41:46.034Z,13.37
2022-10-26T19:44:14.350Z,14.48
2022-10-26T19:46:43.076Z,20.08
2022-10-26T19:49:10.043Z,15.50
2022-10-26T19:51:36.911Z,12.32
2022-10-26T19:54:05.915Z,13.43
2022-10-26T19:56:35.307Z,12.25
2022-10-26T19:59:02.942Z,13.02
2022-10-26T20:01:30.026Z,10.98
2022-10-26T20:03:57.237Z,10.05
2022-10-26T20:06:24.310Z,10.33
2022-10-26T20:08:51.295Z,14.35
2022-10-26T20:11:19.052Z,15.32
2022-10-26T20:13:48.013Z,15.30
2022-10-26T20:16:17.065Z,11.57
2022-10-26T20:18:47.761Z,12.53
2022-10-26T20:21:17.568Z,17.48
2022-10-26T20:23:45.477Z,16.05
2022-10-26T20:26:18.269Z,13.63
2022-10-26T20:28:53.397Z,12.25
2022-10-26T20:31:20.433Z,12.70
2022-10-26T20:33:51.869Z,18.00
2022-10-26T20:36:19.048Z,17.15
2022-10-26T20:38:46.510Z,14.75
2022-10-26T20:41:13.812Z,18.38
2022-10-26T20:43:41.814Z,17.93
2022-10-26T20:46:24.682Z,19.13
2022-10-26T20:48:53.453Z,17.70
2022-10-26T20:52:02.725Z,21.05
2022-10-26T20:54:45.277Z,16.13
2022-10-26T20:57:19.445Z,15.00
2022-10-26T20:59:57.726Z,15.40
2022-10-26T21:02:24.592Z,18.85
2022-10-26T21:04:51.481Z,22.80
2022-10-26T21:07:18.358Z,18.63
2022-10-26T21:09:45.221Z,19.67
2022-10-26T21:12:12.141Z,17.25
2022-10-26T21:14:40.778Z,16.15
2022-10-26T21:17:08.881Z,19.70
2022-10-26T21:19:36.015Z,17.08
2022-10-26T21:22:03.244Z,17.27
2022-10-26T21:24:30.185Z,14.73
2022-10-26T21:26:57.086Z,13.30
2022-10-26T21:29:23.966Z,18.13
2022-10-26T21:31:50.851Z,14.93
2022-10-26T21:34:17.743Z,20.97
2022-10-26T21:36:44.660Z,14.18
2022-10-26T21:39:11.695Z,14.57
2022-10-26T21:41:38.689Z,15.40
2022-10-26T21:44:09.752Z,17.90
2022-10-26T21:46:42.543Z,12.70
2022-10-26T21:49:09.440Z,12.13
2022-10-26T21:51:36.359Z,15.10
2022-10-26T21:54:04.676Z,15.77
2022-10-26T21:56:31.579Z,19.20
2022-10-26T21:59:01.221Z,14.60
2022-10-26T22:01:28.162Z,16.25
2022-10-26T22:03:56.078Z,18.67
2022-10-26T22:06:23.020Z,18.13
2022-10-26T22:08:50.176Z,17.95
2022-10-26T22:11:21.174Z,17.60
2022-10-26T22:13:50.042Z,19.20
2022-10-26T22:16:20.883Z,16.77
2022-10-26T22:18:50.020Z,18.33
2022-10-26T22:21:19.031Z,20.02
2022-10-26T22:23:46.742Z,18.40
2022-10-26T22:26:17.070Z,18.55
2022-10-26T22:28:46.355Z,21.95
2022-10-26T22:31:20.542Z,23.55
2022-10-26T22:33:53.770Z,21.52
2022-10-26T22:36:21.743Z,20.37
2022-10-26T22:38:49.728Z,16.80
2022-10-26T22:41:18.115Z,17.42
2022-10-26T22:43:45.416Z,16.85
2022-10-26T22:46:16.152Z,15.73
2022-10-26T22:48:46.810Z,19.53
2022-10-26T22:51:21.442Z,15.77
2022-10-26T22:53:59.669Z,14.55
2022-10-26T22:56:29.159Z,14.45
2022-10-26T22:58:56.723Z,18.17
2022-10-26T23:01:32.069Z,13.97
2022-10-26T23:04:00.080Z,16.05
2022-10-26T23:06:31.074Z,18.38
2022-10-26T23:08:58.669Z,19.42
2022-10-26T23:11:28.056Z,19.13
2022-10-26T23:13:57.934Z,18.13
2022-10-26T23:16:25.667Z,19.23
2022-10-26T23:18:53.442Z,21.77
2022-10-26T23:21:22.680Z,19.95
2022-10-26T23:23:49.653Z,17.80
2022-10-26T23:26:19.115Z,17.30
2022-10-26T23:28:46.357Z,16.40
2022-10-26T23:31:22.885Z,18.02
2022-10-26T23:33:51.375Z,18.38
2022-10-26T23:36:19.244Z,19.10
2022-10-26T23:38:47.012Z,18.57
2022-10-26T23:41:14.871Z,16.42
2022-10-26T23:43:41.920Z,20.38
2022-10-26T23:46:09.195Z,22.25
2022-10-26T23:48:36.726Z,17.67
2022-10-26T23:51:03.790Z,20.57
2022-10-26T23:53:30.667Z,15.77
2022-10-26T23:55:57.524Z,14.50
2022-10-26T23:58:24.449Z,18.40
